K34 weather

Gardner Municipal Airport
Gardner, Kansas, United States

Public forecast

Using degrees Fahrenheit for public forecast. Weather courtesy of forecast.io.

Closest aviation weather report (METAR) to Gardner Municipal Airport

Closest report is New Century Aircenter Airport, 3.4 nm (6.3 km) ENE. Retrieved 2020/08/06 21:53 UTC (19 minutes ago):

KIXD 062153Z 14012KT 10SM CLR 28/20 A2999 RMK AO2 SLP147 T02780200

Closest aviation forecast (TAF) to Gardner Municipal Airport

Closest forecast is New Century Aircenter Airport, 3.4 nm (6.3 km) ENE. Retrieved 2020/08/06 18:22 UTC (4 hours ago):

TAF KIXD 061720Z 0618/0718 15008KT P6SM FEW035 BKN080 FM071000 18009KT P6SM VCTS SCT035 BKN040CB